Time;durP1;ratioP1;P1;durP2;ratioP2;P2;SDS_P1;SDS_P2;PMS_P1;PMS_P2;Temp;Humidity;BMP_temperature;BMP_pressure;BME280_temperature;BME280_humidity;BME280_pressure;Samples;Min_cycle;Max_cycle;Signal;HPM_P1;HPM_P2
2021/12/17 00:07:04;;;;;;;162.47;59.73;;;11.60;99.90;;;;;;2614085;54;20525;-79
2021/12/17 00:09:30;;;;;;;160.40;60.70;;;10.90;99.90;;;;;;2614527;54;20423;-79
2021/12/17 00:11:56;;;;;;;172.87;63.07;;;10.50;99.90;;;;;;2613845;54;20419;-78
2021/12/17 00:14:28;;;;;;;209.73;66.70;;;11.00;99.90;;;;;;2614492;47;20443;-78
2021/12/17 00:16:57;;;;;;;164.53;59.03;;;11.30;99.90;;;;;;2615040;39;21316;-78
2021/12/17 00:19:42;;;;;;;181.90;65.67;;;11.20;99.90;;;;;;2614771;54;20896;-79
2021/12/17 00:50:20;;;;;;;183.60;65.50;;;11.90;99.90;;;;;;2614016;54;20711;-80
2021/12/17 00:52:46;;;;;;;241.00;67.80;;;12.10;99.90;;;;;;2614844;39;20512;-77
2021/12/17 00:55:12;;;;;;;203.70;65.47;;;12.10;99.90;;;;;;2614486;54;20384;-79
2021/12/17 00:57:44;;;;;;;223.50;69.23;;;12.10;99.90;;;;;;2613348;54;20403;-79
2021/12/17 01:00:15;;;;;;;243.00;69.13;;;12.50;99.90;;;;;;2613893;54;20437;-79
2021/12/17 01:02:42;;;;;;;216.53;64.80;;;12.70;99.90;;;;;;2613299;47;20778;-78
2021/12/17 01:05:20;;;;;;;186.47;63.00;;;11.70;99.90;;;;;;2613851;54;20412;-79
2021/12/17 01:07:50;;;;;;;211.87;66.30;;;11.90;99.90;;;;;;2612922;54;20416;-79
2021/12/17 01:10:24;;;;;;;181.33;63.40;;;11.90;99.90;;;;;;2612177;54;20454;-80
2021/12/17 01:12:57;;;;;;;180.27;58.77;;;11.70;99.90;;;;;;2613753;39;20902;-79
2021/12/17 01:15:44;;;;;;;190.17;62.67;;;10.70;99.90;;;;;;2613840;54;20435;-79
2021/12/17 01:18:18;;;;;;;183.90;61.00;;;10.60;99.90;;;;;;2614020;54;20407;-79
2021/12/17 01:35:28;;;;;;;167.87;59.40;;;12.30;99.90;;;;;;2613818;54;20414;-80
2021/12/17 01:43:18;;;;;;;182.83;62.37;;;11.90;99.90;;;;;;2613349;39;20856;-78
2021/12/17 01:45:44;;;;;;;180.57;60.67;;;12.40;99.90;;;;;;2613262;54;20453;-77
2021/12/17 01:48:18;;;;;;;150.27;57.67;;;12.90;99.90;;;;;;2613759;54;20426;-79
2021/12/17 02:01:43;;;;;;;156.97;62.33;;;13.40;99.90;;;;;;2612577;47;20434;-77
2021/12/17 02:04:09;;;;;;;146.10;54.50;;;13.50;99.90;;;;;;2613253;47;20542;-79
2021/12/17 02:06:37;;;;;;;167.30;60.93;;;13.50;99.90;;;;;;2613591;54;20461;-79
2021/12/17 02:12:37;;;;;;;149.00;54.70;;;13.50;99.90;;;;;;2613592;54;20415;-78
2021/12/17 02:32:03;;;;;;;146.50;53.77;;;13.10;99.90;;;;;;2612978;47;20426;-80
2021/12/17 02:37:24;;;;;;;145.03;54.50;;;13.50;99.90;;;;;;2612556;39;21237;-79
2021/12/17 02:45:32;;;;;;;161.27;54.70;;;13.40;99.90;;;;;;2614624;39;20793;-76
2021/12/17 02:48:07;;;;;;;145.33;54.33;;;13.40;99.90;;;;;;2612889;47;20420;-80
2021/12/17 02:50:35;;;;;;;177.63;57.67;;;13.20;99.90;;;;;;2610224;54;20421;-77
2021/12/17 02:53:07;;;;;;;155.80;55.27;;;13.40;99.90;;;;;;2612532;54;20399;-75
2021/12/17 02:55:35;;;;;;;156.07;55.60;;;13.40;99.90;;;;;;2614418;49;21058;-80
2021/12/17 02:58:01;;;;;;;129.93;51.20;;;13.40;99.90;;;;;;2611691;54;20421;-80
2021/12/17 03:00:29;;;;;;;132.93;52.87;;;12.00;99.90;;;;;;2610061;50;20551;-80
2021/12/17 03:02:56;;;;;;;133.80;52.73;;;11.10;99.90;;;;;;2614036;54;20504;-79
2021/12/17 03:05:24;;;;;;;119.20;52.20;;;10.70;99.90;;;;;;2613938;54;20429;-78
2021/12/17 03:07:51;;;;;;;118.20;49.57;;;10.80;99.90;;;;;;2613210;54;20415;-79
2021/12/17 03:10:17;;;;;;;126.60;49.77;;;10.90;99.90;;;;;;2613045;54;20411;-78
2021/12/17 03:12:47;;;;;;;121.40;51.50;;;11.50;99.90;;;;;;2613083;39;20810;-75
2021/12/17 03:18:31;;;;;;;132.40;54.60;;;12.10;99.90;;;;;;2612824;54;20493;-76
2021/12/17 03:23:41;;;;;;;128.63;54.53;;;10.90;99.90;;;;;;2611520;47;20472;-78
2021/12/17 03:26:17;;;;;;;121.97;52.27;;;10.50;99.90;;;;;;2613972;47;20430;-78
2021/12/17 03:28:52;;;;;;;129.50;51.87;;;10.40;99.90;;;;;;2612708;39;20803;-79
2021/12/17 03:31:20;;;;;;;124.40;51.13;;;10.80;99.90;;;;;;2613140;54;20427;-80
2021/12/17 03:33:49;;;;;;;134.97;50.87;;;11.10;99.90;;;;;;2612295;54;20436;-78
2021/12/17 03:36:18;;;;;;;140.43;53.30;;;11.70;99.90;;;;;;2613387;54;20462;-77
2021/12/17 03:38:47;;;;;;;127.53;52.10;;;12.10;99.90;;;;;;2611534;54;20408;-79
2021/12/17 03:41:24;;;;;;;113.50;51.33;;;12.50;99.90;;;;;;2611282;54;20981;-76
2021/12/17 03:43:56;;;;;;;130.07;54.07;;;12.60;99.90;;;;;;2612284;54;20418;-79
2021/12/17 03:46:29;;;;;;;134.53;52.10;;;12.60;99.90;;;;;;2613869;47;20407;-78
2021/12/17 03:48:55;;;;;;;126.47;52.80;;;12.30;99.90;;;;;;2613601;47;20542;-77
2021/12/17 03:51:21;;;;;;;134.70;50.93;;;12.50;99.90;;;;;;2613456;54;20442;-78
2021/12/17 03:53:53;;;;;;;132.10;50.03;;;12.70;99.90;;;;;;2611884;47;20962;-78
2021/12/17 03:56:20;;;;;;;129.27;51.20;;;12.90;99.90;;;;;;2613163;54;20411;-79
2021/12/17 03:58:49;;;;;;;112.97;44.77;;;13.20;99.90;;;;;;2612329;47;20431;-79
2021/12/17 04:01:16;;;;;;;121.43;45.80;;;13.10;99.90;;;;;;2613056;47;20424;-77
2021/12/17 04:03:43;;;;;;;107.17;45.90;;;13.00;99.90;;;;;;2613888;54;20415;-77
2021/12/17 04:06:19;;;;;;;99.13;44.20;;;13.00;99.90;;;;;;2613048;54;20434;-80
2021/12/17 04:09:09;;;;;;;98.30;44.87;;;13.00;99.90;;;;;;2612637;54;20418;-78
2021/12/17 04:11:53;;;;;;;110.53;45.73;;;12.90;99.90;;;;;;2613441;53;20982;-78
2021/12/17 04:14:33;;;;;;;104.80;43.60;;;13.00;99.90;;;;;;2613661;54;20419;-78
2021/12/17 04:17:04;;;;;;;106.73;44.30;;;13.10;99.90;;;;;;2612965;47;20430;-76
2021/12/17 04:19:30;;;;;;;88.47;43.60;;;13.00;99.90;;;;;;2613883;51;20415;-78
2021/12/17 04:21:56;;;;;;;106.97;45.87;;;12.90;99.90;;;;;;2612867;54;20451;-77
2021/12/17 04:24:22;;;;;;;96.17;41.93;;;12.60;99.90;;;;;;2612873;54;20416;-79
2021/12/17 04:26:48;;;;;;;100.63;42.00;;;12.40;99.90;;;;;;2613281;54;20181;-80
2021/12/17 04:29:21;;;;;;;93.80;42.07;;;12.50;99.90;;;;;;2612816;54;20415;-79
2021/12/17 04:31:53;;;;;;;89.63;39.53;;;12.60;99.90;;;;;;2612662;54;22238;-79
2021/12/17 04:34:21;;;;;;;91.50;42.53;;;12.60;99.90;;;;;;2611526;47;20519;-78
2021/12/17 04:36:50;;;;;;;86.13;40.20;;;12.50;99.90;;;;;;2612653;51;20427;-78
2021/12/17 04:39:23;;;;;;;85.83;42.13;;;12.30;99.90;;;;;;2613487;47;20442;-78
2021/12/17 04:41:57;;;;;;;87.57;41.00;;;12.20;99.90;;;;;;2611595;54;20963;-78
2021/12/17 04:44:30;;;;;;;90.57;43.13;;;12.40;99.90;;;;;;2613072;47;20425;-79
2021/12/17 04:57:15;;;;;;;92.03;43.20;;;12.20;99.90;;;;;;2611797;47;20480;-76
2021/12/17 04:58:05;;;;;;;95.43;41.33;;;12.80;99.90;;;;;;2612567;51;20476;-76
2021/12/17 05:00:31;;;;;;;98.97;41.40;;;13.00;99.90;;;;;;2613337;54;20431;-77
2021/12/17 05:03:07;;;;;;;85.47;43.07;;;13.00;99.90;;;;;;2612817;54;20414;-78
2021/12/17 05:05:35;;;;;;;93.97;44.10;;;13.20;99.90;;;;;;2613300;54;20476;-77
2021/12/17 05:08:13;;;;;;;98.20;42.33;;;13.20;99.90;;;;;;2613653;54;20537;-79
2021/12/17 05:11:01;;;;;;;94.03;43.80;;;12.80;99.90;;;;;;2613550;54;20404;-78
2021/12/17 05:19:05;;;;;;;78.40;37.60;;;12.50;99.90;;;;;;2614443;47;20463;-79
2021/12/17 05:21:33;;;;;;;81.20;38.50;;;12.20;99.90;;;;;;2613994;47;20506;-77
2021/12/17 05:23:59;;;;;;;80.67;39.20;;;11.90;99.90;;;;;;2614281;54;20422;-79
2021/12/17 05:26:25;;;;;;;73.13;36.67;;;11.80;99.90;;;;;;2614267;54;20171;-78
2021/12/17 05:28:55;;;;;;;82.40;39.53;;;11.70;99.90;;;;;;2614164;54;20171;-78
2021/12/17 05:31:25;;;;;;;99.93;41.60;;;11.80;99.90;;;;;;2614377;54;20460;-78
2021/12/17 05:33:56;;;;;;;74.67;36.43;;;11.90;99.90;;;;;;2614465;47;20986;-80
2021/12/17 05:36:25;;;;;;;82.97;37.47;;;11.30;99.90;;;;;;2614539;47;20437;-79
2021/12/17 05:39:06;;;;;;;81.63;37.47;;;11.20;99.90;;;;;;2613940;54;20448;-80
2021/12/17 05:41:34;;;;;;;82.83;38.27;;;11.50;99.90;;;;;;2613066;51;20430;-80
2021/12/17 05:44:19;;;;;;;97.83;41.53;;;11.70;99.90;;;;;;2614674;54;20536;-79
2021/12/17 05:46:51;;;;;;;88.70;41.10;;;11.70;99.90;;;;;;2614785;46;20407;-80
2021/12/17 05:49:26;;;;;;;88.67;40.33;;;11.70;99.90;;;;;;2614301;54;20419;-80
2021/12/17 05:51:53;;;;;;;83.70;39.90;;;11.90;99.90;;;;;;2613317;47;20447;-80
2021/12/17 05:54:20;;;;;;;81.47;37.43;;;11.60;99.90;;;;;;2613318;54;21297;-79
2021/12/17 05:56:47;;;;;;;75.67;36.07;;;11.60;99.90;;;;;;2614747;54;20424;-76
2021/12/17 05:59:13;;;;;;;71.07;34.13;;;11.40;99.90;;;;;;2614099;39;20812;-76
2021/12/17 06:01:39;;;;;;;87.40;35.23;;;11.00;99.90;;;;;;2613524;46;20434;-78
2021/12/17 06:04:05;;;;;;;79.73;34.87;;;10.50;99.90;;;;;;2613841;47;20434;-78
2021/12/17 06:06:47;;;;;;;74.77;36.40;;;10.70;99.90;;;;;;2614457;47;20932;-80
2021/12/17 06:09:14;;;;;;;71.63;34.60;;;11.00;99.90;;;;;;2614470;47;21060;-78
2021/12/17 06:11:40;;;;;;;93.43;38.13;;;11.30;99.90;;;;;;2613806;54;20446;-79
2021/12/17 06:14:07;;;;;;;81.37;35.27;;;11.50;99.90;;;;;;2614124;47;20411;-79
2021/12/17 06:16:36;;;;;;;80.80;36.13;;;11.50;99.90;;;;;;2613388;51;20423;-79
2021/12/17 06:19:07;;;;;;;85.77;34.20;;;11.80;99.90;;;;;;2614935;54;20414;-78
2021/12/17 06:21:33;;;;;;;79.13;35.60;;;11.90;99.90;;;;;;2612658;54;20431;-81
2021/12/17 06:23:59;;;;;;;87.97;36.80;;;11.70;99.90;;;;;;2613138;54;20511;-79
2021/12/17 06:26:26;;;;;;;82.50;36.57;;;11.60;99.90;;;;;;2613295;47;20207;-79
2021/12/17 06:28:55;;;;;;;82.93;35.50;;;11.70;99.90;;;;;;2612182;54;20431;-81
2021/12/17 06:31:23;;;;;;;75.40;36.93;;;11.80;99.90;;;;;;2613136;51;20414;-79
2021/12/17 06:33:50;;;;;;;75.87;35.63;;;11.80;99.90;;;;;;2613975;39;20807;-82
2021/12/17 06:36:16;;;;;;;83.20;37.40;;;11.90;99.90;;;;;;2611454;50;20573;-78
2021/12/17 06:38:43;;;;;;;91.50;36.27;;;11.80;99.90;;;;;;2610689;47;20171;-77
2021/12/17 06:41:09;;;;;;;77.53;35.60;;;12.00;99.90;;;;;;2611045;46;20419;-81
2021/12/17 06:43:39;;;;;;;71.57;34.70;;;11.90;99.90;;;;;;2609555;39;20751;-80
2021/12/17 06:48:41;;;;;;;79.97;34.27;;;12.00;99.90;;;;;;2611982;54;20404;-80
2021/12/17 07:17:35;;;;;;;63.37;28.83;;;11.40;99.90;;;;;;2613674;54;20414;-79
2021/12/17 07:28:33;;;;;;;55.20;28.40;;;11.20;99.90;;;;;;2610681;54;20419;-79
2021/12/17 07:33:41;;;;;;;65.17;28.23;;;11.70;99.90;;;;;;2611060;54;20412;-80
2021/12/17 07:36:26;;;;;;;55.27;25.40;;;11.50;99.90;;;;;;2612557;54;21056;-77
2021/12/17 07:38:59;;;;;;;47.07;24.90;;;11.50;99.90;;;;;;2610368;47;20417;-81
2021/12/17 07:41:47;;;;;;;43.53;23.67;;;11.70;99.90;;;;;;2610971;54;20512;-77
2021/12/17 07:44:31;;;;;;;36.37;20.43;;;12.00;99.90;;;;;;2610801;54;20399;-80
2021/12/17 07:47:16;;;;;;;43.93;22.43;;;11.90;99.90;;;;;;2612881;54;20427;-81
2021/12/17 07:49:47;;;;;;;50.33;22.67;;;11.50;99.90;;;;;;2609578;47;20443;-79
2021/12/17 07:52:13;;;;;;;47.93;24.17;;;11.50;99.90;;;;;;2611273;51;20408;-78
2021/12/17 07:54:39;;;;;;;44.77;22.63;;;11.20;99.90;;;;;;2612266;54;20423;-81
2021/12/17 07:57:05;;;;;;;40.80;21.67;;;11.30;99.90;;;;;;2610645;54;20414;-79
2021/12/17 07:59:34;;;;;;;53.17;23.57;;;11.10;99.90;;;;;;2611500;47;20490;-74
2021/12/17 08:02:00;;;;;;;45.10;22.10;;;11.00;99.90;;;;;;2613023;39;20784;-80
2021/12/17 08:04:32;;;;;;;41.87;22.10;;;10.70;99.90;;;;;;2614321;54;20438;-78
2021/12/17 08:07:05;;;;;;;42.73;22.33;;;10.80;99.90;;;;;;2611410;54;20483;-79
2021/12/17 08:09:35;;;;;;;37.07;22.40;;;10.70;99.90;;;;;;2613536;54;20427;-80
2021/12/17 08:12:05;;;;;;;39.37;23.60;;;10.70;99.90;;;;;;2611908;54;21105;-80
2021/12/17 08:15:09;;;;;;;47.37;23.33;;;10.90;99.90;;;;;;2613087;54;20427;-78
2021/12/17 08:23:35;;;;;;;30.10;18.90;;;10.90;99.90;;;;;;2612564;54;20447;-78
2021/12/17 08:28:50;;;;;;;40.30;23.80;;;10.90;99.90;;;;;;2613579;54;21036;-80
2021/12/17 08:31:17;;;;;;;35.80;24.00;;;10.80;99.90;;;;;;2613554;46;20449;-81
2021/12/17 08:33:43;;;;;;;30.27;18.03;;;11.10;99.90;;;;;;2614175;39;20809;-78
2021/12/17 08:36:09;;;;;;;35.13;19.00;;;11.10;99.90;;;;;;2614060;54;20444;-78
2021/12/17 08:38:36;;;;;;;35.60;19.30;;;10.90;99.90;;;;;;2613523;54;20441;-80
2021/12/17 08:41:18;;;;;;;34.33;19.03;;;10.70;99.90;;;;;;2612632;54;20427;-79
2021/12/17 08:43:44;;;;;;;32.30;18.37;;;10.80;99.90;;;;;;2613311;54;20510;-80
2021/12/17 08:46:10;;;;;;;32.33;19.80;;;10.70;99.90;;;;;;2612941;51;20406;-80
2021/12/17 08:48:46;;;;;;;39.83;20.70;;;11.20;99.90;;;;;;2614645;54;20423;-79
2021/12/17 08:51:31;;;;;;;34.13;18.20;;;11.50;99.90;;;;;;2614574;54;20398;-80
2021/12/17 08:53:57;;;;;;;36.93;19.47;;;11.30;99.90;;;;;;2615224;47;20403;-79
2021/12/17 08:56:46;;;;;;;32.43;16.67;;;11.20;99.90;;;;;;2612064;54;20503;-80
2021/12/17 08:59:16;;;;;;;33.60;20.47;;;11.10;99.90;;;;;;2614391;54;20435;-78
2021/12/17 09:02:04;;;;;;;29.30;18.40;;;11.20;99.90;;;;;;2613673;54;20441;-80
2021/12/17 09:04:31;;;;;;;29.03;18.63;;;11.40;99.90;;;;;;2613485;54;20423;-79
2021/12/17 09:06:59;;;;;;;38.17;18.73;;;11.20;99.90;;;;;;2614196;47;20571;-81
2021/12/17 09:09:25;;;;;;;29.80;17.77;;;11.10;99.90;;;;;;2611640;48;20427;-82
2021/12/17 09:11:51;;;;;;;32.30;17.57;;;11.00;99.90;;;;;;2610453;47;20562;-80
2021/12/17 09:14:29;;;;;;;37.10;19.07;;;10.80;99.90;;;;;;2615196;47;20434;-80
2021/12/17 09:17:11;;;;;;;38.43;18.63;;;10.80;99.90;;;;;;2613310;47;20471;-82
2021/12/17 09:19:38;;;;;;;34.70;17.43;;;10.80;99.90;;;;;;2613370;54;20427;-83
2021/12/17 09:22:13;;;;;;;34.97;19.00;;;10.90;99.90;;;;;;2612964;54;20452;-79
2021/12/17 09:24:46;;;;;;;30.13;18.57;;;11.00;99.90;;;;;;2612365;47;21107;-83
2021/12/17 09:27:19;;;;;;;31.80;18.23;;;11.30;99.90;;;;;;2612857;54;20411;-80
2021/12/17 09:30:07;;;;;;;31.20;17.90;;;11.20;99.90;;;;;;2613834;46;20445;-78
2021/12/17 09:32:33;;;;;;;36.00;18.97;;;11.00;99.90;;;;;;2613985;54;20419;-80
2021/12/17 09:34:59;;;;;;;33.00;19.03;;;10.70;99.90;;;;;;2613986;54;20415;-82
2021/12/17 09:37:25;;;;;;;31.17;17.80;;;10.80;99.90;;;;;;2614432;54;20411;-81
2021/12/17 09:39:51;;;;;;;30.93;18.90;;;10.90;99.90;;;;;;2614779;54;20143;-83
2021/12/17 09:42:17;;;;;;;30.87;18.07;;;10.90;99.90;;;;;;2613548;47;20522;-82
2021/12/17 09:44:43;;;;;;;34.53;18.80;;;10.90;99.90;;;;;;2614248;39;20543;-80
2021/12/17 09:47:08;;;;;;;33.60;18.60;;;11.30;99.90;;;;;;2614542;47;20423;-81
2021/12/17 09:49:34;;;;;;;33.87;18.30;;;11.10;99.90;;;;;;2613724;54;20452;-81
2021/12/17 09:52:00;;;;;;;31.10;16.47;;;10.90;99.90;;;;;;2614888;54;20512;-83
2021/12/17 09:54:27;;;;;;;28.90;16.47;;;10.90;99.90;;;;;;2614171;47;20295;-81
2021/12/17 09:56:53;;;;;;;30.40;17.17;;;10.70;99.90;;;;;;2614756;54;20411;-82
2021/12/17 09:59:19;;;;;;;25.90;15.60;;;10.70;99.90;;;;;;2613165;47;21557;-82
2021/12/17 10:01:46;;;;;;;29.47;16.73;;;10.60;99.90;;;;;;2614166;54;20430;-81
2021/12/17 10:04:19;;;;;;;26.70;16.47;;;10.60;99.90;;;;;;2611166;47;20174;-79
2021/12/17 10:06:47;;;;;;;25.03;15.40;;;10.60;99.90;;;;;;2613538;31;21131;-81
2021/12/17 10:09:15;;;;;;;25.83;13.67;;;10.90;99.90;;;;;;2612353;47;20533;-81
2021/12/17 10:12:05;;;;;;;19.57;13.80;;;10.90;99.90;;;;;;2614001;47;20415;-82
2021/12/17 10:14:31;;;;;;;21.93;14.87;;;10.80;99.90;;;;;;2614165;54;20404;-83
2021/12/17 10:17:12;;;;;;;22.47;14.03;;;10.70;99.90;;;;;;2615403;54;20423;-81
2021/12/17 10:19:50;;;;;;;19.80;14.27;;;10.70;99.90;;;;;;2612194;51;20510;-81
2021/12/17 10:22:21;;;;;;;25.10;14.57;;;10.80;99.90;;;;;;2614843;54;20446;-82
2021/12/17 10:25:04;;;;;;;21.90;14.80;;;10.80;99.90;;;;;;2607565;39;20846;-82
2021/12/17 10:27:33;;;;;;;21.80;14.47;;;10.90;99.90;;;;;;2614110;54;20413;-81
2021/12/17 10:30:14;;;;;;;20.77;13.37;;;10.90;99.90;;;;;;2613306;47;20422;-81
2021/12/17 10:32:46;;;;;;;20.20;13.90;;;11.10;99.90;;;;;;2613586;47;21043;-83
2021/12/17 10:35:16;;;;;;;20.27;12.27;;;11.20;99.90;;;;;;2614255;39;20800;-78
2021/12/17 10:37:45;;;;;;;19.00;12.00;;;11.20;99.90;;;;;;2614477;54;20416;-82
2021/12/17 10:40:15;;;;;;;18.20;12.20;;;11.10;99.90;;;;;;2614138;54;20388;-79
2021/12/17 10:42:49;;;;;;;18.57;12.33;;;11.10;99.90;;;;;;2614189;54;20411;-80
2021/12/17 10:45:25;;;;;;;24.57;14.20;;;11.50;99.90;;;;;;2611113;54;20422;-77
2021/12/17 10:48:25;;;;;;;19.70;12.20;;;11.30;99.90;;;;;;2613461;54;20414;-82
2021/12/17 10:51:02;;;;;;;14.80;11.37;;;11.20;99.90;;;;;;2614248;47;20406;-81
2021/12/17 10:53:28;;;;;;;17.60;12.80;;;11.20;99.90;;;;;;2614643;54;20400;-78
2021/12/17 10:55:55;;;;;;;23.40;14.17;;;11.30;99.90;;;;;;2614052;51;20411;-82
2021/12/17 10:58:22;;;;;;;16.20;12.70;;;11.20;99.90;;;;;;2612577;50;21870;-81
2021/12/17 11:01:02;;;;;;;16.07;12.07;;;11.10;99.90;;;;;;2613734;39;20788;-83
2021/12/17 11:03:28;;;;;;;17.27;12.53;;;11.10;99.90;;;;;;2614733;39;20698;-79
2021/12/17 11:05:55;;;;;;;20.30;12.70;;;11.20;99.90;;;;;;2612898;54;20411;-82
2021/12/17 11:08:37;;;;;;;16.27;11.73;;;11.20;99.90;;;;;;2614286;54;20992;-80
2021/12/17 11:11:09;;;;;;;15.73;12.10;;;11.10;99.90;;;;;;2615048;54;20415;-80
2021/12/17 11:14:00;;;;;;;19.40;12.90;;;11.20;99.90;;;;;;2615113;54;20415;-84
2021/12/17 11:16:27;;;;;;;16.60;12.40;;;11.20;99.90;;;;;;2614518;51;20437;-83
2021/12/17 11:18:53;;;;;;;13.70;10.50;;;11.20;99.90;;;;;;2615120;39;20852;-80
2021/12/17 11:21:20;;;;;;;14.90;11.67;;;11.10;99.90;;;;;;2614549;54;20407;-83
2021/12/17 11:23:47;;;;;;;16.00;10.20;;;11.10;99.90;;;;;;2614852;47;20971;-84
2021/12/17 11:26:14;;;;;;;16.57;11.70;;;10.80;99.90;;;;;;2615226;54;21178;-80
2021/12/17 11:28:44;;;;;;;12.30;9.43;;;10.90;99.90;;;;;;2615367;54;20408;-84
2021/12/17 11:31:10;;;;;;;13.80;10.67;;;10.90;99.90;;;;;;2615081;51;20435;-83
2021/12/17 11:33:38;;;;;;;23.87;10.80;;;10.90;99.90;;;;;;2615692;54;20424;-84
2021/12/17 11:36:04;;;;;;;15.80;11.00;;;10.80;99.90;;;;;;2612225;54;21006;-82
2021/12/17 11:38:50;;;;;;;21.30;11.77;;;10.90;99.90;;;;;;2612937;54;20484;-83
2021/12/17 11:41:35;;;;;;;12.27;9.80;;;11.20;99.90;;;;;;2614037;54;20416;-84
2021/12/17 11:44:03;;;;;;;21.93;12.10;;;11.00;99.90;;;;;;2614601;54;20438;-81
2021/12/17 11:46:32;;;;;;;14.40;10.63;;;11.30;99.90;;;;;;2613827;54;20399;-81
2021/12/17 11:49:23;;;;;;;10.90;9.00;;;11.10;99.90;;;;;;2613305;47;20987;-82
2021/12/17 11:51:54;;;;;;;11.57;9.30;;;11.10;99.90;;;;;;2613335;54;20430;-83
2021/12/17 11:54:27;;;;;;;12.90;8.80;;;11.20;99.90;;;;;;2612447;54;20937;-78
2021/12/17 11:57:04;;;;;;;13.70;9.13;;;10.90;99.90;;;;;;2612363;47;20414;-80
2021/12/17 11:59:32;;;;;;;15.30;8.40;;;10.60;99.90;;;;;;2613870;54;20406;-83
2021/12/17 12:02:12;;;;;;;7.50;6.57;;;10.90;99.90;;;;;;2615451;54;20449;-79
2021/12/17 12:04:44;;;;;;;8.50;6.00;;;10.40;99.90;;;;;;2612840;54;20403;-82
2021/12/17 12:07:12;;;;;;;8.27;6.60;;;10.30;99.90;;;;;;2616761;54;20534;-85
2021/12/17 12:10:05;;;;;;;8.60;6.80;;;10.20;99.90;;;;;;2615903;54;20425;-84
2021/12/17 12:12:51;;;;;;;8.10;6.97;;;10.30;99.90;;;;;;2615003;54;20425;-81
2021/12/17 12:15:16;;;;;;;9.57;6.87;;;10.70;99.90;;;;;;2615215;54;20485;-85
2021/12/17 12:18:03;;;;;;;10.37;6.73;;;10.70;99.90;;;;;;2614358;47;20415;-83
2021/12/17 12:20:49;;;;;;;10.60;6.83;;;10.70;99.90;;;;;;2615443;47;20173;-85
2021/12/17 12:23:16;;;;;;;8.00;6.23;;;10.30;99.90;;;;;;2616814;47;20462;-81
2021/12/17 12:25:43;;;;;;;8.90;7.13;;;10.40;99.90;;;;;;2615208;39;20857;-82
2021/12/17 12:28:12;;;;;;;8.10;6.70;;;10.60;99.90;;;;;;2614014;47;20428;-81
2021/12/17 12:30:43;;;;;;;7.90;7.07;;;11.10;99.90;;;;;;2615627;54;20415;-82
2021/12/17 12:33:12;;;;;;;7.77;6.13;;;10.80;99.90;;;;;;2614548;47;21090;-84
2021/12/17 12:35:38;;;;;;;10.77;6.83;;;11.00;99.90;;;;;;2617834;54;20398;-82
2021/12/17 12:38:30;;;;;;;8.40;6.80;;;10.90;99.90;;;;;;2616803;47;21427;-84
2021/12/17 12:40:57;;;;;;;8.47;7.00;;;10.80;99.90;;;;;;2617542;47;20170;-82
2021/12/17 12:43:28;;;;;;;5.37;4.83;;;11.00;99.90;;;;;;2616187;54;20447;-81
2021/12/17 12:45:54;;;;;;;6.80;6.07;;;11.20;99.90;;;;;;2614527;54;20422;-83
2021/12/17 12:48:39;;;;;;;8.93;6.03;;;11.50;99.90;;;;;;2612787;46;20453;-83
2021/12/17 12:51:18;;;;;;;8.30;6.17;;;11.30;99.90;;;;;;2613575;47;20966;-83
2021/12/17 12:54:00;;;;;;;7.90;6.80;;;11.60;99.90;;;;;;2615505;54;20430;-83
2021/12/17 12:56:26;;;;;;;7.80;6.27;;;11.50;99.90;;;;;;2615405;54;20921;-82
2021/12/17 12:58:53;;;;;;;7.10;5.53;;;11.80;99.90;;;;;;2612264;54;20411;-83
2021/12/17 13:01:20;;;;;;;9.33;6.17;;;11.70;99.90;;;;;;2615165;54;20441;-80
2021/12/17 13:03:47;;;;;;;6.60;5.90;;;11.90;99.90;;;;;;2613625;39;20462;-84
2021/12/17 13:06:19;;;;;;;9.60;6.70;;;11.90;99.90;;;;;;2614536;54;20415;-80
2021/12/17 13:08:54;;;;;;;9.13;7.13;;;11.00;99.90;;;;;;2613905;39;20908;-82
2021/12/17 13:11:21;;;;;;;12.07;8.77;;;10.90;99.90;;;;;;2614026;54;20409;-83
2021/12/17 13:13:53;;;;;;;10.03;7.80;;;10.50;99.90;;;;;;2614747;47;20407;-82
2021/12/17 13:16:54;;;;;;;8.80;7.90;;;10.50;99.90;;;;;;2615584;54;20423;-84
2021/12/17 13:24:27;;;;;;;10.20;7.60;;;10.50;99.90;;;;;;2616924;54;20458;-84
2021/12/17 13:27:01;;;;;;;11.87;8.37;;;10.40;99.90;;;;;;2617101;54;20415;-84
2021/12/17 13:29:34;;;;;;;8.97;6.90;;;10.70;99.90;;;;;;2616432;54;20400;-82
2021/12/17 13:32:02;;;;;;;7.30;6.43;;;10.70;99.90;;;;;;2616230;54;20419;-84
2021/12/17 13:34:40;;;;;;;7.93;5.93;;;10.80;99.90;;;;;;2614623;39;20994;-80
2021/12/17 13:37:20;;;;;;;5.87;5.20;;;10.90;99.90;;;;;;2614147;54;20434;-82
2021/12/17 13:40:03;;;;;;;5.03;4.53;;;10.50;99.90;;;;;;2615266;54;20400;-83
2021/12/17 13:42:32;;;;;;;6.90;5.23;;;10.80;99.90;;;;;;2614318;54;20408;-84
2021/12/17 13:45:00;;;;;;;6.80;4.97;;;11.40;99.90;;;;;;2616076;54;20430;-81
2021/12/17 13:47:32;;;;;;;5.20;4.60;;;11.30;99.90;;;;;;2614973;47;20497;-83
2021/12/17 13:50:17;;;;;;;8.33;5.27;;;11.30;99.90;;;;;;2614617;54;20430;-83
2021/12/17 13:52:46;;;;;;;7.13;5.80;;;11.70;99.90;;;;;;2614909;54;20423;-80
2021/12/17 13:55:15;;;;;;;7.90;5.90;;;11.90;99.90;;;;;;2614474;54;20430;-84
2021/12/17 13:57:42;;;;;;;6.70;5.50;;;11.80;99.90;;;;;;2616232;54;20402;-82
2021/12/17 14:00:13;;;;;;;6.33;5.20;;;11.80;99.90;;;;;;2613639;54;20510;-82
2021/12/17 14:02:42;;;;;;;6.07;5.47;;;11.80;99.90;;;;;;2615689;54;20446;-80
2021/12/17 14:05:24;;;;;;;6.60;5.70;;;11.70;99.90;;;;;;2615311;54;20643;-80
2021/12/17 14:07:52;;;;;;;6.80;6.20;;;11.30;99.90;;;;;;2614616;54;20423;-81
2021/12/17 14:10:21;;;;;;;8.77;6.47;;;10.90;99.90;;;;;;2612397;48;20439;-82
2021/12/17 14:12:48;;;;;;;6.50;5.60;;;10.80;99.90;;;;;;2613219;39;20817;-84
2021/12/17 14:15:23;;;;;;;7.73;6.80;;;10.50;99.90;;;;;;2613594;54;20418;-81
2021/12/17 14:17:54;;;;;;;8.53;6.00;;;10.40;99.90;;;;;;2614712;47;20426;-80
2021/12/17 14:20:23;;;;;;;7.13;6.33;;;10.40;99.90;;;;;;2614756;54;20456;-83
2021/12/17 14:22:51;;;;;;;8.60;6.57;;;10.40;99.90;;;;;;2613824;54;21007;-78
2021/12/17 14:25:27;;;;;;;10.90;8.10;;;10.40;99.90;;;;;;2614507;54;20438;-79
2021/12/17 14:27:54;;;;;;;6.77;6.17;;;10.30;99.90;;;;;;2614524;54;20431;-82
2021/12/17 14:30:32;;;;;;;10.70;8.27;;;10.40;99.90;;;;;;2614325;54;20712;-81
2021/12/17 14:32:59;;;;;;;9.20;7.37;;;10.50;99.90;;;;;;2613889;50;20434;-80
2021/12/17 14:35:44;;;;;;;9.80;7.60;;;10.90;99.90;;;;;;2615355;54;20396;-81
2021/12/17 14:38:12;;;;;;;10.57;8.53;;;10.80;99.90;;;;;;2613772;54;20410;-83
2021/12/17 14:40:49;;;;;;;8.67;7.70;;;11.00;99.90;;;;;;2613606;54;20415;-82
2021/12/17 14:43:21;;;;;;;10.30;7.40;;;10.90;99.90;;;;;;2613832;54;20408;-80
2021/12/17 14:46:17;;;;;;;8.60;6.90;;;10.70;99.90;;;;;;2613553;54;20448;-83
2021/12/17 15:04:49;;;;;;;8.87;7.83;;;10.60;99.90;;;;;;2615758;54;20505;-82
2021/12/17 15:07:17;;;;;;;9.27;7.73;;;10.70;99.90;;;;;;2614747;51;20424;-80
2021/12/17 15:09:45;;;;;;;10.03;7.83;;;10.60;99.90;;;;;;2613983;47;20426;-78
2021/12/17 15:14:58;;;;;;;8.43;6.97;;;10.80;99.90;;;;;;2610845;39;20872;-78
2021/12/17 15:17:24;;;;;;;10.10;7.17;;;11.00;99.90;;;;;;2611657;54;21039;-83
2021/12/17 15:19:52;;;;;;;10.20;7.13;;;11.40;99.90;;;;;;2611561;54;20430;-82
2021/12/17 15:22:17;;;;;;;8.50;7.70;;;11.40;99.90;;;;;;2609900;51;20459;-81
2021/12/17 15:24:43;;;;;;;9.37;8.10;;;10.80;99.90;;;;;;2611329;39;20927;-80
2021/12/17 15:27:09;;;;;;;10.20;7.90;;;10.70;99.90;;;;;;2610991;54;20469;-80
2021/12/17 15:29:36;;;;;;;11.20;8.77;;;10.50;99.90;;;;;;2609556;47;20217;-76
2021/12/17 15:32:02;;;;;;;12.77;9.60;;;10.00;99.90;;;;;;2614017;54;20402;-82
2021/12/17 15:34:28;;;;;;;13.77;10.67;;;10.20;99.90;;;;;;2611348;54;20430;-80
2021/12/17 15:36:57;;;;;;;12.90;10.30;;;10.10;99.90;;;;;;2612875;54;21016;-82
2021/12/17 15:39:26;;;;;;;16.73;12.60;;;10.10;99.90;;;;;;2612953;54;20418;-84
2021/12/17 15:41:53;;;;;;;15.50;12.17;;;10.00;99.90;;;;;;2612499;54;21109;-78
2021/12/17 15:44:19;;;;;;;14.67;11.83;;;10.10;99.90;;;;;;2612807;54;20395;-81
2021/12/17 15:46:44;;;;;;;17.43;12.80;;;10.10;99.90;;;;;;2612365;54;20518;-81
2021/12/17 15:49:10;;;;;;;16.63;12.77;;;10.20;99.90;;;;;;2613028;54;20415;-83
2021/12/17 15:51:36;;;;;;;15.57;11.80;;;10.50;99.90;;;;;;2612846;46;20447;-81
2021/12/17 15:54:04;;;;;;;15.77;12.33;;;10.60;99.90;;;;;;2610081;54;20170;-80
2021/12/17 15:56:31;;;;;;;16.07;11.83;;;10.90;99.90;;;;;;2609639;54;21232;-80